Time;durP1;ratioP1;P1;durP2;ratioP2;P2;SDS_P1;SDS_P2;PMS_P1;PMS_P2;Temp;Humidity;BMP_temperature;BMP_pressure;BME280_temperature;BME280_humidity;BME280_pressure;Samples;Min_cycle;Max_cycle;Signal;HPM_P1;HPM_P2
2022/07/03 00:02:11;;;;;;;5.33;3.97;;;12.90;99.90;12.30;101183;;;;571993;249;24101;-79
2022/07/03 00:04:39;;;;;;;7.30;3.73;;;12.90;99.90;12.30;101180;;;;576899;248;24076;-79
2022/07/03 00:07:07;;;;;;;7.53;4.10;;;12.90;99.90;12.30;101185;;;;576858;247;24082;-78
2022/07/03 00:09:35;;;;;;;5.20;4.20;;;13.00;99.90;12.30;101188;;;;576853;247;24080;-78
2022/07/03 00:12:06;;;;;;;6.13;4.37;;;12.90;99.90;12.30;101188;;;;576841;247;24101;-79
2022/07/03 00:14:32;;;;;;;8.93;5.47;;;12.90;99.90;12.30;101177;;;;568173;249;24124;-79
2022/07/03 00:16:59;;;;;;;10.50;5.70;;;12.90;99.90;12.30;101187;;;;576542;249;24109;-78
2022/07/03 00:19:27;;;;;;;9.83;5.40;;;12.90;99.90;12.30;101177;;;;576239;248;24111;-78
2022/07/03 00:21:57;;;;;;;7.43;5.43;;;12.90;99.90;12.30;101176;;;;576217;248;25126;-79
2022/07/03 00:24:34;;;;;;;11.67;6.90;;;12.90;99.90;12.30;101177;;;;566750;249;25137;-79
2022/07/03 00:27:01;;;;;;;7.67;5.43;;;12.90;99.90;12.30;101182;;;;575530;249;24089;-78
2022/07/03 00:29:32;;;;;;;10.97;5.87;;;12.90;99.90;12.30;101175;;;;563804;249;24121;-79
2022/07/03 00:32:00;;;;;;;8.53;5.87;;;12.90;99.90;12.30;101174;;;;567231;249;24097;-79
2022/07/03 00:34:28;;;;;;;16.93;5.77;;;12.90;99.90;12.30;101176;;;;567441;249;24148;-79
2022/07/03 00:36:56;;;;;;;6.00;5.30;;;12.90;99.90;12.20;101164;;;;553553;254;24114;-79
2022/07/03 00:39:24;;;;;;;9.00;5.80;;;12.90;99.90;12.20;101173;;;;563129;249;24086;-79
2022/07/03 00:41:52;;;;;;;12.83;5.47;;;12.90;99.90;12.20;101165;;;;567032;249;24116;-79
2022/07/03 00:44:20;;;;;;;7.07;5.37;;;12.90;99.90;12.20;101170;;;;563189;254;24111;-79
2022/07/03 00:46:48;;;;;;;11.97;5.13;;;12.90;99.90;12.20;101164;;;;570539;249;24086;-79
2022/07/03 00:49:17;;;;;;;7.63;5.57;;;12.90;99.90;12.20;101161;;;;567484;249;24080;-78
2022/07/03 00:51:46;;;;;;;11.60;5.37;;;12.90;99.90;12.20;101161;;;;568938;248;24095;-78
2022/07/03 00:54:14;;;;;;;7.07;5.50;;;12.80;99.90;12.20;101151;;;;564310;248;24108;-78
2022/07/03 00:56:41;;;;;;;8.27;5.33;;;12.90;99.90;12.20;101149;;;;568029;248;24148;-79
2022/07/03 00:59:09;;;;;;;5.77;5.17;;;12.90;99.90;12.20;101144;;;;567981;248;24097;-78
2022/07/03 01:01:38;;;;;;;10.70;5.80;;;12.80;99.90;12.20;101151;;;;576844;247;24104;-78
2022/07/03 01:04:23;;;;;;;7.50;5.53;;;12.90;99.90;12.20;101156;;;;564388;248;24081;-79
2022/07/03 01:06:53;;;;;;;5.90;5.30;;;12.90;99.90;12.20;101155;;;;567949;248;24103;-78
2022/07/03 01:09:24;;;;;;;6.13;5.53;;;12.90;99.90;12.20;101161;;;;567694;249;24085;-78
2022/07/03 01:11:52;;;;;;;6.20;5.00;;;12.90;99.90;12.20;101156;;;;566823;249;24143;-78
2022/07/03 01:14:39;;;;;;;8.17;5.30;;;12.80;99.90;12.10;101160;;;;564939;249;24085;-78
2022/07/03 01:17:07;;;;;;;4.80;4.47;;;12.80;99.90;12.10;101153;;;;567772;249;25133;-80
2022/07/03 01:19:47;;;;;;;11.17;5.90;;;12.80;99.90;12.10;101154;;;;567464;249;24078;-78
2022/07/03 01:22:30;;;;;;;7.70;5.17;;;12.70;99.90;12.00;101149;;;;568201;249;24089;-79
2022/07/03 01:25:09;;;;;;;8.93;5.33;;;12.70;99.90;12.00;101157;;;;565050;249;24094;-78
2022/07/03 01:27:43;;;;;;;11.07;4.33;;;12.70;99.90;12.00;101156;;;;567476;249;24114;-78
2022/07/03 01:30:14;;;;;;;4.70;4.17;;;12.70;99.90;12.00;101148;;;;566916;249;24105;-78
2022/07/03 01:32:42;;;;;;;7.73;5.07;;;12.60;99.90;12.00;101143;;;;574365;249;24105;-78
2022/07/03 01:35:10;;;;;;;6.43;4.53;;;12.70;99.90;12.00;101142;;;;568169;249;24087;-79
2022/07/03 01:37:37;;;;;;;6.27;4.50;;;12.70;99.90;12.00;101141;;;;567746;249;24079;-79
2022/07/03 01:40:06;;;;;;;8.00;5.07;;;12.70;99.90;12.10;101142;;;;567832;249;24130;-80
2022/07/03 01:42:34;;;;;;;6.80;4.33;;;12.70;99.90;12.00;101140;;;;567659;249;24093;-81
2022/07/03 01:45:01;;;;;;;7.47;4.10;;;12.70;99.90;12.00;101143;;;;567787;249;24143;-78
2022/07/03 01:47:33;;;;;;;5.53;4.73;;;12.70;99.90;12.00;101142;;;;567919;249;24073;-80
2022/07/03 01:49:57;;;;;;;9.07;5.00;;;12.60;99.90;12.00;101135;;;;567468;249;24158;-81
2022/07/03 01:52:26;;;;;;;6.17;4.53;;;12.70;99.90;12.00;101131;;;;567627;249;24101;-82
2022/07/03 01:54:55;;;;;;;6.00;4.60;;;12.70;99.90;12.00;101135;;;;564028;249;24109;-81
2022/07/03 01:57:23;;;;;;;6.07;4.33;;;12.60;99.90;12.00;101123;;;;567545;249;24184;-81
2022/07/03 01:59:50;;;;;;;6.87;5.00;;;12.70;99.90;12.00;101119;;;;567625;249;24092;-80
2022/07/03 02:02:27;;;;;;;6.13;4.67;;;12.70;99.90;12.00;101121;;;;572199;248;24063;-82
2022/07/03 02:05:07;;;;;;;8.40;4.63;;;12.60;99.90;12.00;101123;;;;567459;248;24089;-79
2022/07/03 02:07:47;;;;;;;10.47;4.90;;;12.60;99.90;12.00;101110;;;;558290;253;24110;-79
2022/07/03 02:10:18;;;;;;;5.77;4.17;;;12.60;99.90;11.90;101114;;;;580290;243;24059;-78
2022/07/03 02:12:48;;;;;;;7.90;4.37;;;12.60;99.90;11.90;101115;;;;579947;243;24062;-79
2022/07/03 02:15:19;;;;;;;4.90;4.40;;;12.60;99.90;11.90;101106;;;;575872;243;24062;-79
2022/07/03 02:17:47;;;;;;;7.43;4.77;;;12.60;99.90;11.90;101117;;;;577740;243;24065;-79
2022/07/03 02:20:18;;;;;;;5.57;4.80;;;12.60;99.90;11.90;101112;;;;579016;243;24064;-79
2022/07/03 02:22:58;;;;;;;7.53;4.27;;;12.60;99.90;11.90;101115;;;;580306;243;24052;-80
2022/07/03 02:25:31;;;;;;;5.07;4.57;;;12.60;99.90;11.90;101110;;;;579604;243;24066;-80
2022/07/03 02:28:24;;;;;;;4.23;3.87;;;12.60;99.90;11.90;101102;;;;577320;248;24097;-80
2022/07/03 02:30:51;;;;;;;5.70;5.20;;;12.60;99.90;11.90;101101;;;;568006;249;24163;-80
2022/07/03 02:33:27;;;;;;;7.43;4.97;;;12.60;99.90;11.90;101108;;;;565781;254;24114;-80
2022/07/03 02:35:58;;;;;;;6.30;4.57;;;12.60;99.90;11.90;101111;;;;564311;249;24076;-79
2022/07/03 02:38:23;;;;;;;5.53;4.40;;;12.60;99.90;11.90;101102;;;;564814;254;24126;-80
2022/07/03 02:41:11;;;;;;;7.87;4.90;;;12.50;99.90;11.90;101086;;;;563951;249;24085;-80
2022/07/03 02:43:50;;;;;;;12.13;4.63;;;12.50;99.90;11.90;101101;;;;563103;249;24131;-79
2022/07/03 02:49:31;;;;;;;11.40;7.70;;;12.60;99.90;12.00;101101;;;;553445;253;35469;-80
2022/07/03 02:52:02;;;;;;;7.70;5.33;;;12.60;99.90;12.00;101108;;;;572397;249;24116;-80
2022/07/03 02:54:30;;;;;;;6.07;4.97;;;12.60;99.90;12.00;101109;;;;557011;253;24112;-80
2022/07/03 02:57:11;;;;;;;7.40;5.27;;;12.70;99.90;12.00;101107;;;;568332;249;24105;-78
2022/07/03 03:00:03;;;;;;;8.53;4.63;;;12.70;99.90;12.10;101104;;;;553669;253;24140;-80
2022/07/03 03:02:50;;;;;;;7.47;4.70;;;12.70;99.90;12.10;101100;;;;564185;249;24090;-78
2022/07/03 03:05:42;;;;;;;4.47;4.07;;;12.70;99.90;12.20;101104;;;;568050;249;24139;-79
2022/07/03 03:08:19;;;;;;;6.37;4.63;;;12.80;99.90;12.20;101107;;;;567749;249;24074;-79
2022/07/03 03:10:51;;;;;;;11.87;4.67;;;12.80;99.90;12.30;101103;;;;567521;249;24092;-80
2022/07/03 03:13:19;;;;;;;7.17;4.10;;;12.90;99.90;12.40;101100;;;;568301;248;24098;-79
2022/07/03 03:15:58;;;;;;;5.10;4.30;;;13.00;99.90;12.50;101100;;;;569011;248;24162;-79
2022/07/03 03:18:26;;;;;;;6.53;4.43;;;13.10;99.90;12.80;101111;;;;568112;248;24152;-79
2022/07/03 03:20:57;;;;;;;8.77;4.30;;;13.30;99.90;13.60;101105;;;;568271;248;24143;-80
2022/07/03 03:23:53;;;;;;;6.43;4.87;;;14.00;99.90;14.60;101106;;;;568074;248;24076;-81
2022/07/03 03:26:23;;;;;;;5.10;4.20;;;14.90;99.90;15.70;101113;;;;568231;248;24074;-80
2022/07/03 03:28:52;;;;;;;6.63;4.27;;;16.90;99.90;16.60;101115;;;;568111;248;24102;-81
2022/07/03 03:31:20;;;;;;;7.03;4.83;;;16.90;99.90;17.40;101117;;;;567958;249;24091;-81
2022/07/03 03:33:48;;;;;;;5.90;4.27;;;17.80;99.90;18.20;101116;;;;564295;249;24088;-80
2022/07/03 03:36:18;;;;;;;7.63;4.60;;;18.60;99.90;18.80;101112;;;;564294;249;24097;-79
2022/07/03 03:38:50;;;;;;;5.90;3.77;;;20.10;99.90;19.50;101121;;;;567987;249;24171;-81
2022/07/03 03:41:18;;;;;;;4.57;4.00;;;20.10;99.90;20.20;101117;;;;567765;249;24095;-81
2022/07/03 03:43:46;;;;;;;7.20;3.90;;;20.90;99.90;21.00;101120;;;;567616;249;23113;-81
2022/07/03 03:46:11;;;;;;;3.67;3.33;;;21.70;99.90;21.80;101124;;;;567763;249;24184;-80
2022/07/03 03:48:42;;;;;;;3.40;3.03;;;22.50;99.90;22.40;101116;;;;576496;247;24077;-81
2022/07/03 03:51:10;;;;;;;2.57;2.13;;;23.20;99.90;23.00;101116;;;;567264;249;24194;-81
2022/07/03 03:53:34;;;;;;;3.40;2.10;;;23.80;99.90;23.60;101103;;;;575917;249;23205;-80
2022/07/03 03:56:05;;;;;;;5.30;2.07;;;24.40;99.90;24.20;101091;;;;564136;249;23100;-80
2022/07/03 03:58:37;;;;;;;2.63;2.00;;;25.00;99.90;24.80;101088;;;;563845;249;23100;-81
2022/07/03 04:01:04;;;;;;;3.90;1.80;;;25.70;99.90;25.40;101093;;;;567325;249;23091;-81
2022/07/03 04:03:33;;;;;;;1.77;1.60;;;26.30;99.90;25.90;101089;;;;575238;235;24116;-82
2022/07/03 04:06:01;;;;;;;3.63;1.50;;;26.80;99.90;26.50;101086;;;;585157;245;23106;-82
2022/07/03 04:08:30;;;;;;;3.43;1.60;;;27.40;99.90;27.20;101091;;;;573212;250;23138;-83
2022/07/03 04:10:54;;;;;;;3.37;1.83;;;28.00;99.90;27.80;101090;;;;572991;246;24141;-82
2022/07/03 04:13:22;;;;;;;2.12;1.67;;;28.70;99.90;28.40;101088;;;;574677;246;23129;-82
2022/07/03 04:15:50;;;;;;;2.95;1.73;;;29.90;95.20;28.90;101096;;;;583738;245;23109;-82
2022/07/03 04:18:23;;;;;;;3.37;2.30;;;30.40;92.10;29.50;101103;;;;574513;246;23161;-82
2022/07/03 04:20:48;;;;;;;3.22;1.83;;;31.00;89.90;30.00;101100;;;;574756;245;23113;-82
2022/07/03 04:23:15;;;;;;;2.90;1.77;;;30.90;89.00;30.50;101099;;;;574941;245;23109;-81
2022/07/03 04:25:43;;;;;;;2.62;1.83;;;31.50;85.90;31.00;101105;;;;574691;248;23113;-82
2022/07/03 04:28:14;;;;;;;4.53;1.77;;;32.00;82.10;31.60;101103;;;;576072;245;23120;-82
2022/07/03 04:30:43;;;;;;;4.43;2.42;;;32.50;78.00;32.10;101107;;;;584545;241;24094;-82
2022/07/03 04:33:07;;;;;;;2.00;1.73;;;33.10;75.00;32.70;101101;;;;584354;245;23131;-83
2022/07/03 04:35:39;;;;;;;5.03;2.60;;;33.60;72.00;33.20;101108;;;;570039;245;35246;-82
2022/07/03 04:38:03;;;;;;;3.67;2.15;;;34.20;69.10;33.60;101109;;;;577202;244;23114;-81
2022/07/03 04:40:31;;;;;;;3.60;2.33;;;34.60;66.80;34.20;101109;;;;575650;245;23093;-82
2022/07/03 04:42:59;;;;;;;4.07;1.92;;;35.20;63.50;34.60;101113;;;;584596;245;24112;-81
2022/07/03 04:45:27;;;;;;;2.85;2.30;;;35.70;61.10;34.80;101113;;;;584273;245;23086;-82
2022/07/03 04:47:55;;;;;;;5.82;2.35;;;36.00;60.70;35.30;101113;;;;584170;245;24075;-81
2022/07/03 04:50:23;;;;;;;4.95;2.28;;;36.90;57.80;35.70;101111;;;;584295;242;23198;-82
2022/07/03 04:52:52;;;;;;;3.17;2.05;;;37.50;56.00;36.30;101119;;;;574939;245;24146;-82
2022/07/03 04:55:21;;;;;;;2.78;1.95;;;37.90;55.50;36.60;101117;;;;575161;245;23093;-82
2022/07/03 04:57:49;;;;;;;3.50;1.95;;;37.90;55.50;37.30;101118;;;;574964;245;23124;-81
2022/07/03 05:00:17;;;;;;;4.32;2.03;;;38.50;54.00;37.80;101124;;;;575056;245;23163;-82
2022/07/03 05:02:44;;;;;;;2.65;1.70;;;39.00;52.60;38.40;101123;;;;574690;245;23089;-82
2022/07/03 05:05:15;;;;;;;4.07;1.95;;;39.60;50.00;38.60;101121;;;;574650;245;23164;-82
2022/07/03 05:07:40;;;;;;;2.30;1.50;;;40.00;49.40;38.90;101125;;;;583757;245;24036;-81
2022/07/03 05:10:08;;;;;;;5.80;1.35;;;40.30;49.10;39.30;101132;;;;583165;242;22990;-82
2022/07/03 05:12:36;;;;;;;1.80;1.25;;;40.70;48.00;39.80;101129;;;;575085;245;23017;-83
2022/07/03 05:15:04;;;;;;;2.22;1.60;;;41.00;46.90;40.00;101130;;;;569379;250;23026;-82
2022/07/03 05:17:32;;;;;;;2.22;1.42;;;41.30;46.40;40.40;101125;;;;574400;245;23057;-82
2022/07/03 05:22:46;;;;;;;2.47;1.40;;;42.00;45.00;41.40;101134;;;;575367;245;23003;-83
2022/07/03 05:25:14;;;;;;;1.92;1.00;;;42.50;43.60;41.80;101124;;;;575419;245;22980;-81
2022/07/03 05:27:42;;;;;;;2.87;1.23;;;43.10;42.60;41.80;101125;;;;575400;245;22992;-82
2022/07/03 05:30:10;;;;;;;3.47;1.40;;;43.00;42.50;42.00;101127;;;;575465;245;22999;-83
2022/07/03 05:32:38;;;;;;;4.12;1.90;;;43.30;42.00;42.40;101136;;;;580111;245;22976;-81
2022/07/03 05:35:10;;;;;;;1.58;1.20;;;43.90;41.50;42.80;101137;;;;575170;245;23077;-83
2022/07/03 05:37:35;;;;;;;1.25;1.15;;;43.90;41.40;43.20;101140;;;;584989;241;23075;-83
2022/07/03 05:40:03;;;;;;;1.58;1.25;;;44.20;41.70;43.60;101137;;;;576480;245;24048;-81
2022/07/03 05:42:31;;;;;;;2.20;1.17;;;44.60;41.30;44.10;101140;;;;575788;245;22996;-83
2022/07/03 05:44:59;;;;;;;2.55;1.37;;;45.00;40.60;44.20;101138;;;;575737;245;23018;-82
2022/07/03 05:47:28;;;;;;;2.97;1.37;;;45.30;40.20;44.30;101132;;;;575672;245;23007;-81
2022/07/03 05:49:55;;;;;;;2.15;1.60;;;45.30;39.70;44.60;101138;;;;575471;245;23003;-82
2022/07/03 05:52:24;;;;;;;1.62;1.20;;;45.90;39.90;45.00;101137;;;;575684;245;27230;-82
2022/07/03 05:54:52;;;;;;;3.17;1.75;;;45.90;40.60;45.40;101143;;;;575485;245;23031;-83
2022/07/03 05:57:21;;;;;;;3.90;1.65;;;46.20;39.60;45.80;101142;;;;575243;245;23008;-83
2022/07/03 05:59:48;;;;;;;2.97;1.33;;;46.50;38.80;45.90;101143;;;;575355;245;23009;-82
2022/07/03 06:02:17;;;;;;;3.33;1.50;;;46.80;38.80;46.10;101140;;;;575231;245;23018;-82
2022/07/03 06:04:44;;;;;;;3.00;1.48;;;46.90;38.40;46.10;101133;;;;584220;245;23035;-83
2022/07/03 06:07:15;;;;;;;1.42;1.20;;;47.00;38.60;46.40;101141;;;;575271;245;22995;-83
2022/07/03 06:09:40;;;;;;;3.60;1.50;;;47.10;37.60;46.60;101137;;;;575384;245;23008;-82
2022/07/03 06:12:08;;;;;;;2.15;1.58;;;47.70;37.50;47.00;101136;;;;575337;245;23106;-82
2022/07/03 06:14:37;;;;;;;2.42;1.30;;;48.00;37.80;47.50;101133;;;;575104;245;23029;-81
2022/07/03 06:17:05;;;;;;;3.62;1.45;;;48.00;37.10;47.70;101144;;;;575164;245;23054;-83
2022/07/03 06:19:33;;;;;;;3.53;1.30;;;48.30;36.70;47.90;101134;;;;575046;245;23037;-83
2022/07/03 06:22:01;;;;;;;1.67;1.48;;;48.60;36.40;48.10;101137;;;;575085;245;23063;-82
2022/07/03 06:24:29;;;;;;;2.25;1.52;;;48.80;35.00;47.40;101130;;;;575070;245;23070;-82
2022/07/03 06:26:57;;;;;;;1.48;1.20;;;48.60;35.30;47.10;101132;;;;575445;245;24064;-82
2022/07/03 06:29:25;;;;;;;3.50;1.30;;;48.20;35.40;47.20;101135;;;;575335;245;23049;-83
2022/07/03 06:31:52;;;;;;;3.25;1.40;;;48.20;35.60;47.30;101133;;;;575348;245;22992;-82
2022/07/03 06:34:20;;;;;;;2.35;1.20;;;48.20;36.00;47.80;101136;;;;575452;245;24022;-82
2022/07/03 06:36:48;;;;;;;1.25;1.15;;;48.40;35.80;48.40;101141;;;;575029;245;23000;-82
2022/07/03 06:39:16;;;;;;;1.42;1.12;;;48.80;35.90;48.70;101138;;;;575378;245;23009;-82
2022/07/03 06:41:44;;;;;;;2.10;1.40;;;49.20;34.80;48.20;101145;;;;575022;245;23097;-82
2022/07/03 06:44:12;;;;;;;1.95;1.33;;;49.10;34.10;47.90;101140;;;;574901;245;23019;-83
2022/07/03 06:46:40;;;;;;;1.35;1.17;;;48.80;35.00;48.10;101142;;;;575053;245;23044;-82
2022/07/03 06:49:08;;;;;;;2.10;1.50;;;48.70;35.00;48.40;101138;;;;576113;245;23008;-82
2022/07/03 06:51:36;;;;;;;1.87;1.30;;;48.90;34.20;48.20;101143;;;;576490;245;22974;-82
2022/07/03 06:54:04;;;;;;;1.27;1.17;;;48.90;34.40;48.40;101139;;;;576137;245;22995;-83
2022/07/03 06:56:32;;;;;;;2.20;1.27;;;49.00;34.50;49.10;101137;;;;585032;245;23031;-82
2022/07/03 06:58:59;;;;;;;1.92;1.40;;;49.50;34.90;49.30;101136;;;;575946;245;22974;-82
2022/07/03 07:01:27;;;;;;;2.40;1.30;;;49.80;33.20;47.40;101135;;;;575935;245;23009;-82
2022/07/03 07:03:59;;;;;;;2.50;1.45;;;49.00;33.00;44.40;101138;;;;575884;245;23007;-81
2022/07/03 07:06:28;;;;;;;1.48;1.23;;;45.40;36.80;44.20;101142;;;;575557;245;23002;-82
2022/07/03 07:08:52;;;;;;;3.07;1.70;;;45.30;36.90;42.90;101146;;;;570496;245;34245;-81
2022/07/03 07:11:20;;;;;;;2.53;1.40;;;44.20;36.00;40.00;101130;;;;570431;245;34305;-81
2022/07/03 07:13:48;;;;;;;3.07;1.70;;;42.00;38.00;39.70;101134;;;;570713;245;34291;-82
2022/07/03 07:16:16;;;;;;;2.00;1.30;;;41.00;39.30;41.30;101126;;;;575618;245;23016;-82
2022/07/03 07:18:44;;;;;;;1.40;1.30;;;41.70;40.10;43.40;101126;;;;575667;245;22976;-82
2022/07/03 07:21:11;;;;;;;4.72;1.42;;;43.10;38.80;45.20;101127;;;;575638;245;23012;-82
2022/07/03 07:23:39;;;;;;;1.33;1.23;;;45.00;37.30;46.60;101120;;;;575364;245;23033;-82
2022/07/03 07:26:07;;;;;;;2.45;1.52;;;46.50;35.70;47.70;101121;;;;575433;245;23038;-83
2022/07/03 07:28:35;;;;;;;1.70;1.60;;;47.80;35.50;48.80;101129;;;;575143;245;23018;-81
2022/07/03 07:31:04;;;;;;;1.58;1.48;;;49.70;34.00;49.70;101119;;;;575094;245;24079;-82
2022/07/03 07:33:32;;;;;;;2.22;1.17;;;49.70;33.90;50.40;101117;;;;575484;245;22976;-80
2022/07/03 07:36:00;;;;;;;1.37;1.35;;;50.50;33.70;51.00;101117;;;;575488;245;22992;-81
2022/07/03 07:38:28;;;;;;;2.15;1.67;;;51.20;33.00;51.20;101127;;;;575078;245;23062;-82
2022/07/03 07:40:56;;;;;;;1.50;1.40;;;51.60;32.40;51.60;101121;;;;575316;245;23043;-82
2022/07/03 07:43:23;;;;;;;1.87;1.73;;;51.90;32.50;52.20;101123;;;;575143;245;23007;-82
2022/07/03 07:45:52;;;;;;;2.08;1.58;;;52.40;31.80;52.40;101125;;;;575133;245;23003;-82
2022/07/03 07:48:19;;;;;;;2.45;1.83;;;52.70;31.50;52.60;101122;;;;575026;245;23037;-82
2022/07/03 07:50:49;;;;;;;2.03;1.30;;;52.80;31.60;52.70;101120;;;;574942;245;23028;-82
2022/07/03 07:53:19;;;;;;;3.17;1.48;;;53.10;31.10;52.80;101121;;;;574891;245;23091;-83
2022/07/03 07:55:44;;;;;;;1.90;1.52;;;53.10;31.00;52.90;101118;;;;574686;245;23066;-80
2022/07/03 07:58:12;;;;;;;1.80;1.48;;;53.20;31.10;53.10;101121;;;;575006;245;23068;-83
2022/07/03 08:05:35;;;;;;;2.12;1.67;;;53.20;31.10;53.40;101112;;;;576069;245;23045;-84
2022/07/03 08:05:54;;;;;;;2.33;1.75;;;53.90;30.70;53.80;101114;;;;575757;245;23016;-83
2022/07/03 08:08:22;;;;;;;4.33;1.83;;;54.00;30.60;54.10;101108;;;;570809;245;34317;-83
2022/07/03 08:10:52;;;;;;;1.73;1.45;;;54.30;30.20;54.10;101111;;;;570636;245;34290;-84
2022/07/03 08:13:18;;;;;;;1.62;1.40;;;54.50;29.60;53.80;101116;;;;570464;245;34281;-84
2022/07/03 08:15:50;;;;;;;1.85;1.75;;;54.20;30.00;53.70;101106;;;;575566;245;24101;-83
2022/07/03 08:18:15;;;;;;;3.33;1.73;;;54.40;29.80;54.00;101105;;;;575306;245;23018;-83
2022/07/03 08:20:43;;;;;;;1.65;1.55;;;54.40;29.80;54.30;101101;;;;575313;245;23029;-83
2022/07/03 08:23:11;;;;;;;1.80;1.70;;;54.70;30.00;54.70;101102;;;;574689;245;23014;-83
2022/07/03 08:25:39;;;;;;;2.47;1.70;;;55.10;29.30;54.20;101102;;;;584205;245;23012;-84
2022/07/03 08:28:06;;;;;;;2.70;1.70;;;55.10;28.90;54.10;101105;;;;575686;245;23023;-84
2022/07/03 08:30:34;;;;;;;1.80;1.40;;;54.90;29.50;54.20;101103;;;;575238;245;23011;-84
2022/07/03 08:33:02;;;;;;;1.73;1.55;;;54.80;29.40;54.40;101088;;;;575630;245;23001;-83
2022/07/03 08:35:30;;;;;;;2.05;1.90;;;54.80;29.00;54.90;101092;;;;575535;245;23049;-82
2022/07/03 08:37:58;;;;;;;1.92;1.83;;;55.30;29.00;55.00;101087;;;;575337;245;23038;-82
2022/07/03 08:40:27;;;;;;;2.50;1.67;;;55.50;29.00;55.00;101102;;;;574956;245;23039;-83
2022/07/03 08:42:56;;;;;;;2.97;1.80;;;55.80;27.70;55.30;101104;;;;575128;245;22998;-83
2022/07/03 08:45:24;;;;;;;1.52;1.40;;;55.50;27.60;54.40;101104;;;;574984;245;23108;-83
2022/07/03 08:47:52;;;;;;;1.55;1.37;;;55.50;27.50;52.90;101108;;;;575334;245;23001;-83
2022/07/03 08:50:20;;;;;;;1.77;1.27;;;54.50;27.90;52.40;101110;;;;579342;245;23043;-82
2022/07/03 08:52:48;;;;;;;1.33;1.10;;;53.80;28.40;52.90;101105;;;;585286;245;22991;-83
2022/07/03 08:55:16;;;;;;;1.10;1.10;;;53.70;28.70;53.20;101101;;;;583827;245;23044;-82
2022/07/03 08:57:44;;;;;;;1.05;1.05;;;54.10;27.70;53.00;101094;;;;583847;244;23003;-82
2022/07/03 09:00:16;;;;;;;1.95;1.20;;;54.10;27.90;53.20;101096;;;;574584;245;23012;-82
2022/07/03 09:02:44;;;;;;;1.23;1.23;;;54.10;27.80;52.90;101090;;;;574771;245;23014;-82
2022/07/03 09:05:11;;;;;;;2.25;1.45;;;54.20;28.30;53.30;101088;;;;574813;245;24045;-83
2022/07/03 09:07:42;;;;;;;1.60;1.48;;;54.30;29.00;54.00;101083;;;;574896;245;23003;-82
2022/07/03 09:10:10;;;;;;;3.03;1.37;;;54.80;28.20;54.00;101082;;;;575004;245;24043;-82
2022/07/03 09:12:38;;;;;;;1.83;1.70;;;55.00;28.50;54.20;101083;;;;576449;245;22997;-81
2022/07/03 09:15:06;;;;;;;1.30;1.30;;;55.20;27.90;54.30;101074;;;;576179;245;23014;-82
2022/07/03 09:17:38;;;;;;;2.35;1.50;;;55.40;27.50;53.70;101079;;;;576184;245;22997;-81
2022/07/03 09:20:07;;;;;;;1.45;1.35;;;54.80;27.20;53.40;101080;;;;575530;245;23072;-82
2022/07/03 09:22:38;;;;;;;2.40;1.62;;;54.80;27.20;53.20;101077;;;;570328;245;34351;-82
2022/07/03 09:25:09;;;;;;;2.08;1.20;;;54.80;27.10;52.90;101078;;;;584443;245;23034;-83
2022/07/03 09:27:40;;;;;;;1.02;1.02;;;54.50;26.70;52.90;101079;;;;575093;245;23056;-82
2022/07/03 09:30:08;;;;;;;1.27;0.85;;;54.50;26.60;52.00;101075;;;;575413;245;24060;-82
2022/07/03 09:32:39;;;;;;;1.50;1.20;;;53.90;26.10;51.60;101075;;;;575795;245;23011;-82
2022/07/03 09:35:21;;;;;;;1.08;1.00;;;52.90;26.70;51.00;101072;;;;575811;245;23015;-80
2022/07/03 09:37:56;;;;;;;1.20;1.10;;;52.80;26.60;50.30;101074;;;;580276;245;23003;-82
2022/07/03 09:40:27;;;;;;;0.98;0.98;;;52.40;26.80;49.50;101069;;;;575715;245;23039;-81
2022/07/03 09:43:02;;;;;;;1.23;1.17;;;51.60;27.20;50.20;101066;;;;583815;245;23045;-81
2022/07/03 09:45:50;;;;;;;1.37;0.93;;;51.60;27.10;50.40;101064;;;;574017;245;22999;-82
2022/07/03 09:48:41;;;;;;;1.10;1.00;;;52.30;27.10;50.70;101059;;;;574047;245;23007;-80
2022/07/03 09:51:23;;;;;;;2.15;2.03;;;52.20;27.00;50.50;101065;;;;573788;245;23011;-83
2022/07/03 09:53:57;;;;;;;1.15;1.12;;;52.40;26.80;50.40;101059;;;;583525;241;23070;-81
2022/07/03 09:56:34;;;;;;;2.25;1.52;;;52.30;26.90;50.20;101060;;;;575212;245;22996;-83
2022/07/03 09:59:18;;;;;;;2.30;0.88;;;52.30;26.30;50.70;101049;;;;574004;245;23006;-82
2022/07/03 10:01:47;;;;;;;2.60;0.90;;;52.30;26.90;51.60;101051;;;;574787;245;23010;-81
2022/07/03 10:04:19;;;;;;;0.85;0.85;;;53.10;26.80;52.40;101044;;;;584020;245;23024;-84
2022/07/03 10:06:56;;;;;;;0.95;0.95;;;54.40;26.30;52.40;101037;;;;574212;245;23025;-83
2022/07/03 10:09:24;;;;;;;1.42;1.10;;;54.40;26.20;52.80;101035;;;;573961;245;23008;-82
2022/07/03 10:11:52;;;;;;;1.35;1.20;;;54.90;26.50;53.10;101037;;;;574827;245;23038;-83
2022/07/03 10:14:20;;;;;;;1.05;1.05;;;54.90;26.40;52.40;101028;;;;574764;245;23032;-82
2022/07/03 10:16:51;;;;;;;1.00;1.00;;;54.50;26.70;51.70;101040;;;;574810;245;23034;-82
2022/07/03 10:19:22;;;;;;;1.67;1.10;;;53.90;26.70;50.90;101029;;;;573869;245;23032;-83
2022/07/03 10:21:56;;;;;;;0.93;0.93;;;53.00;27.10;50.00;101031;;;;574879;245;23018;-82
2022/07/03 10:24:27;;;;;;;0.82;0.82;;;52.10;27.70;48.80;101030;;;;576232;245;23009;-81
2022/07/03 10:26:52;;;;;;;1.15;1.00;;;50.90;28.70;48.40;101027;;;;575223;245;23029;-82
2022/07/03 10:29:22;;;;;;;1.35;1.20;;;50.30;29.10;48.20;101025;;;;575695;245;23003;-82
2022/07/03 10:31:54;;;;;;;2.65;0.93;;;49.10;28.80;47.10;101023;;;;575836;245;24064;-83
2022/07/03 10:34:20;;;;;;;0.80;0.80;;;47.80;29.90;45.70;101026;;;;584500;245;24096;-82
2022/07/03 10:36:50;;;;;;;1.02;0.70;;;47.80;29.30;44.40;101020;;;;584349;245;23039;-81
2022/07/03 10:39:49;;;;;;;0.85;0.85;;;46.40;30.20;43.00;101028;;;;579131;245;34349;-83
2022/07/03 10:45:12;;;;;;;2.87;0.80;;;43.10;32.30;40.10;101015;;;;583968;245;23048;-82
2022/07/03 10:47:47;;;;;;;0.70;0.70;;;40.20;34.80;39.30;101012;;;;584245;242;23071;-83
2022/07/03 10:50:19;;;;;;;1.35;1.10;;;40.10;34.70;38.40;101017;;;;575119;245;23038;-82
2022/07/03 10:52:46;;;;;;;0.93;0.85;;;38.90;36.30;36.50;101013;;;;574195;245;23073;-83
2022/07/03 10:55:14;;;;;;;0.70;0.70;;;37.20;36.90;34.70;101013;;;;575450;245;25116;-82
2022/07/03 10:57:38;;;;;;;1.92;0.73;;;35.50;38.90;33.40;101017;;;;584767;242;23001;-82
2022/07/03 11:00:18;;;;;;;0.57;0.52;;;34.00;41.00;32.20;101008;;;;584714;241;23057;-82
2022/07/03 11:02:49;;;;;;;0.52;0.52;;;32.70;42.80;31.30;101006;;;;575836;245;23002;-82
2022/07/03 11:05:23;;;;;;;0.75;0.75;;;31.60;44.60;30.40;101007;;;;576094;245;24015;-82
2022/07/03 11:07:51;;;;;;;0.50;0.50;;;30.70;45.40;29.50;100998;;;;584476;244;23045;-81
2022/07/03 11:10:18;;;;;;;1.23;1.13;;;29.80;47.10;29.00;100998;;;;575444;245;23004;-81
2022/07/03 11:13:07;;;;;;;1.33;0.60;;;29.10;48.20;28.60;100992;;;;575846;245;24013;-82
2022/07/03 11:15:38;;;;;;;3.40;1.23;;;28.70;49.20;28.10;100993;;;;580924;245;23005;-81
2022/07/03 11:18:09;;;;;;;0.53;0.53;;;28.20;50.20;27.70;100987;;;;575370;245;23025;-81
2022/07/03 11:20:43;;;;;;;0.83;0.80;;;27.80;50.60;27.10;100981;;;;575356;245;23003;-81
2022/07/03 11:23:13;;;;;;;0.97;0.87;;;27.40;51.10;26.60;100981;;;;575257;245;23019;-82
2022/07/03 11:25:41;;;;;;;0.30;0.30;;;27.00;52.00;26.10;100982;;;;575184;245;23023;-81
2022/07/03 11:28:12;;;;;;;0.73;0.60;;;26.50;53.30;25.60;100989;;;;574519;245;23975;-82
2022/07/03 11:33:56;;;;;;;0.70;0.70;;;25.60;54.30;24.80;100962;;;;573722;245;23986;-82
2022/07/03 11:36:27;;;;;;;0.70;0.70;;;25.10;55.10;24.50;100962;;;;576820;245;23998;-82
2022/07/03 11:38:58;;;;;;;5.20;0.97;;;24.90;55.50;24.40;100968;;;;586268;245;23978;-82